Time;durP1;ratioP1;P1;durP2;ratioP2;P2;SDS_P1;SDS_P2;PMS_P1;PMS_P2;Temp;Humidity;BMP_temperature;BMP_pressure;BME280_temperature;BME280_humidity;BME280_pressure;Samples;Min_cycle;Max_cycle;Signal;HPM_P1;HPM_P2
2021/05/30 00:00:20;;;;;;;4.68;3.17;;;13.40;63.50;;;;;;4996555;28;20120;-72
2021/05/30 00:02:45;;;;;;;4.32;2.67;;;13.30;64.10;;;;;;5011746;28;20053;-73
2021/05/30 00:05:30;;;;;;;4.60;2.77;;;13.30;64.60;;;;;;5022875;28;20040;-72
2021/05/30 00:08:14;;;;;;;6.65;3.42;;;13.20;65.20;;;;;;5016211;28;20117;-72
2021/05/30 00:10:59;;;;;;;4.45;2.85;;;13.20;65.50;;;;;;5031270;28;20448;-73
2021/05/30 00:13:45;;;;;;;4.07;2.70;;;13.20;66.10;;;;;;5024478;28;20109;-74
2021/05/30 00:16:28;;;;;;;5.72;2.97;;;13.10;66.90;;;;;;5031209;28;20144;-72
2021/05/30 00:19:13;;;;;;;3.72;2.65;;;13.10;67.20;;;;;;4998258;28;20430;-74
2021/05/30 00:21:57;;;;;;;5.78;2.65;;;13.10;67.40;;;;;;5011536;28;20675;-73
2021/05/30 00:24:42;;;;;;;5.72;3.25;;;13.10;67.50;;;;;;4992525;28;20493;-74
2021/05/30 00:27:26;;;;;;;4.90;3.20;;;13.00;68.20;;;;;;5006238;28;22404;-74
2021/05/30 00:30:11;;;;;;;4.22;3.00;;;13.00;68.20;;;;;;5011535;28;20125;-74
2021/05/30 00:32:55;;;;;;;4.28;3.22;;;13.00;68.70;;;;;;5021442;28;20453;-74
2021/05/30 00:35:39;;;;;;;4.90;3.40;;;12.90;68.70;;;;;;4997851;28;20418;-75
2021/05/30 00:38:23;;;;;;;5.25;3.15;;;12.90;69.30;;;;;;5000901;28;20037;-74
2021/05/30 00:41:07;;;;;;;5.63;3.00;;;12.90;69.60;;;;;;5003846;28;20050;-73
2021/05/30 00:43:54;;;;;;;4.10;3.13;;;12.90;69.90;;;;;;4994730;28;20404;-73
2021/05/30 00:46:20;;;;;;;4.50;2.95;;;12.90;70.50;;;;;;4993478;28;20034;-74
2021/05/30 00:48:47;;;;;;;6.57;3.50;;;12.80;70.50;;;;;;5003588;28;20033;-75
2021/05/30 00:51:13;;;;;;;5.13;3.38;;;12.80;70.90;;;;;;5010268;28;20053;-73
2021/05/30 00:53:39;;;;;;;5.50;3.53;;;12.80;71.20;;;;;;5003745;28;20026;-74
2021/05/30 00:56:23;;;;;;;6.90;3.30;;;12.80;71.40;;;;;;4991866;28;20041;-71
2021/05/30 00:59:02;;;;;;;5.13;2.92;;;12.80;71.30;;;;;;5002216;28;20393;-72
2021/05/30 01:01:27;;;;;;;5.43;3.67;;;12.70;71.70;;;;;;5010836;28;20225;-71
2021/05/30 01:03:53;;;;;;;5.82;3.45;;;12.70;72.10;;;;;;5000631;28;20041;-71
2021/05/30 01:06:19;;;;;;;7.53;3.63;;;12.60;72.30;;;;;;5007112;28;20474;-73
2021/05/30 01:09:04;;;;;;;4.32;3.30;;;12.70;72.60;;;;;;5005812;28;20132;-72
2021/05/30 01:11:46;;;;;;;4.85;3.45;;;12.60;72.70;;;;;;5001604;28;20041;-72
2021/05/30 01:14:31;;;;;;;6.68;4.10;;;12.60;73.40;;;;;;5007754;28;20049;-72
2021/05/30 01:17:15;;;;;;;5.45;4.05;;;12.50;73.80;;;;;;5009507;28;20041;-72
2021/05/30 01:20:02;;;;;;;5.65;3.55;;;12.50;74.20;;;;;;4996556;28;20065;-73
2021/05/30 01:22:47;;;;;;;6.22;4.07;;;12.50;74.40;;;;;;4992192;28;20069;-72
2021/05/30 01:25:31;;;;;;;6.82;3.83;;;12.40;74.50;;;;;;5002141;28;20500;-72
2021/05/30 01:28:17;;;;;;;5.78;3.53;;;12.40;74.70;;;;;;5001783;28;20052;-73
2021/05/30 01:31:00;;;;;;;6.15;3.70;;;12.40;74.70;;;;;;4994676;28;20507;-72
2021/05/30 01:33:45;;;;;;;6.50;4.05;;;12.40;75.00;;;;;;4994544;28;20045;-72
2021/05/30 01:36:29;;;;;;;7.95;4.50;;;12.30;75.20;;;;;;5003221;28;20397;-71
2021/05/30 01:38:55;;;;;;;6.13;3.60;;;12.30;76.20;;;;;;4997435;28;20026;-71
2021/05/30 01:41:20;;;;;;;4.07;2.90;;;12.30;76.10;;;;;;5000492;28;20527;-71
2021/05/30 01:43:46;;;;;;;5.85;4.20;;;12.30;76.10;;;;;;5033140;28;20022;-71
2021/05/30 01:46:11;;;;;;;7.32;3.85;;;12.20;76.50;;;;;;5028889;28;20042;-71
2021/05/30 01:48:37;;;;;;;7.80;4.47;;;12.20;76.90;;;;;;5012947;28;20038;-71
2021/05/30 01:51:03;;;;;;;5.88;3.90;;;12.20;76.70;;;;;;5012419;28;20037;-71
2021/05/30 01:53:45;;;;;;;5.57;3.55;;;12.20;76.70;;;;;;5013607;28;20025;-72
2021/05/30 01:58:40;;;;;;;6.72;3.67;;;12.10;76.80;;;;;;5011826;28;20037;-72
2021/05/30 02:01:06;;;;;;;6.10;4.20;;;12.10;76.80;;;;;;5010515;28;20539;-72
2021/05/30 02:03:32;;;;;;;6.55;3.65;;;12.00;77.00;;;;;;5013502;28;20052;-72
2021/05/30 02:05:59;;;;;;;8.35;4.10;;;12.00;77.00;;;;;;5019550;28;20401;-72
2021/05/30 02:08:25;;;;;;;6.93;3.58;;;12.00;76.90;;;;;;5008109;28;20534;-72
2021/05/30 02:11:09;;;;;;;7.28;3.88;;;12.00;76.80;;;;;;5005482;28;20088;-72
2021/05/30 02:13:59;;;;;;;8.13;3.88;;;11.90;76.50;;;;;;4994132;28;20557;-72
2021/05/30 02:16:43;;;;;;;7.15;3.47;;;11.90;76.60;;;;;;5006542;28;20037;-72
2021/05/30 02:19:27;;;;;;;6.50;4.57;;;11.90;76.60;;;;;;4993949;28;20466;-71
2021/05/30 02:22:11;;;;;;;5.95;3.67;;;11.80;76.90;;;;;;5003730;28;20557;-71
2021/05/30 02:24:55;;;;;;;6.72;3.45;;;11.80;76.60;;;;;;5015664;28;20063;-71
2021/05/30 02:27:39;;;;;;;5.93;3.28;;;11.80;76.30;;;;;;5017610;28;20099;-72
2021/05/30 02:30:24;;;;;;;7.38;3.38;;;11.80;76.10;;;;;;5012150;28;20410;-71
2021/05/30 02:33:08;;;;;;;8.50;3.55;;;11.80;76.10;;;;;;5011712;28;20048;-72
2021/05/30 02:35:52;;;;;;;6.57;3.97;;;11.80;75.80;;;;;;5023109;28;20041;-72
2021/05/30 02:38:36;;;;;;;6.03;3.63;;;11.70;75.70;;;;;;4999036;28;20029;-72
2021/05/30 02:41:20;;;;;;;6.35;3.58;;;11.70;75.50;;;;;;5022359;28;20083;-72
2021/05/30 02:44:05;;;;;;;5.88;3.40;;;11.70;75.70;;;;;;5011670;28;20033;-72
2021/05/30 02:46:49;;;;;;;6.25;3.28;;;11.60;75.30;;;;;;4994223;28;20128;-72
2021/05/30 02:49:34;;;;;;;5.15;3.40;;;11.60;75.30;;;;;;5028940;28;20115;-73
2021/05/30 02:52:18;;;;;;;6.27;3.20;;;11.60;75.20;;;;;;5020295;28;20095;-72
2021/05/30 02:55:03;;;;;;;7.17;3.60;;;11.60;75.30;;;;;;5031508;28;20744;-73
2021/05/30 02:57:48;;;;;;;4.93;3.78;;;11.60;75.40;;;;;;5017194;28;20036;-72
2021/05/30 03:00:32;;;;;;;6.97;4.00;;;11.60;75.50;;;;;;5032810;28;20044;-72
2021/05/30 03:03:16;;;;;;;5.22;3.22;;;11.60;75.30;;;;;;5009880;28;20104;-72
2021/05/30 03:06:00;;;;;;;5.65;3.88;;;11.60;75.20;;;;;;5029275;28;20037;-72
2021/05/30 03:08:44;;;;;;;7.70;3.70;;;11.60;75.50;;;;;;5011079;28;20103;-74
2021/05/30 03:11:28;;;;;;;7.60;3.63;;;11.60;75.50;;;;;;4996292;28;20061;-74
2021/05/30 03:14:11;;;;;;;6.82;3.50;;;11.60;75.40;;;;;;5013551;28;20655;-74
2021/05/30 03:16:56;;;;;;;7.18;3.38;;;11.50;75.50;;;;;;5011114;28;20080;-74
2021/05/30 03:19:39;;;;;;;6.22;3.53;;;11.60;75.60;;;;;;5030014;28;20118;-74
2021/05/30 03:22:23;;;;;;;4.35;3.08;;;11.50;75.50;;;;;;5018180;28;20065;-75
2021/05/30 03:25:08;;;;;;;8.75;3.40;;;11.50;75.70;;;;;;4992822;28;20061;-75
2021/05/30 03:27:52;;;;;;;8.07;3.65;;;11.50;75.70;;;;;;5012921;28;20041;-71
2021/05/30 03:30:36;;;;;;;6.57;3.63;;;11.50;75.90;;;;;;5016578;28;20390;-71
2021/05/30 03:33:20;;;;;;;3.97;2.88;;;11.50;75.50;;;;;;5020392;28;20076;-71
2021/05/30 03:36:08;;;;;;;4.30;3.00;;;11.50;75.50;;;;;;5026161;28;20103;-72
2021/05/30 03:39:03;;;;;;;5.45;3.38;;;11.50;75.30;;;;;;5011993;28;20045;-72
2021/05/30 03:41:53;;;;;;;4.85;3.38;;;11.50;75.10;;;;;;5003881;28;20044;-71
2021/05/30 03:44:37;;;;;;;5.43;2.83;;;11.50;75.00;;;;;;4996538;28;20044;-72
2021/05/30 03:47:21;;;;;;;7.65;3.40;;;11.50;74.90;;;;;;5002666;28;20505;-72
2021/05/30 03:50:06;;;;;;;4.15;2.85;;;11.50;74.80;;;;;;5011898;28;20037;-72
2021/05/30 03:52:50;;;;;;;4.32;3.17;;;11.60;74.50;;;;;;5010704;28;20088;-72
2021/05/30 03:55:34;;;;;;;5.05;3.03;;;11.60;74.40;;;;;;5011811;28;20084;-71
2021/05/30 03:58:19;;;;;;;5.50;2.90;;;11.50;74.00;;;;;;5008839;28;20508;-71
2021/05/30 04:01:04;;;;;;;8.23;3.00;;;11.60;74.00;;;;;;5011730;28;20100;-71
2021/05/30 04:03:48;;;;;;;5.07;2.63;;;11.60;73.80;;;;;;4992713;28;20049;-72
2021/05/30 04:06:32;;;;;;;5.38;3.10;;;11.60;73.70;;;;;;4996543;28;20607;-71
2021/05/30 04:09:16;;;;;;;7.38;3.33;;;11.60;73.70;;;;;;5003569;28;20093;-71
2021/05/30 04:12:00;;;;;;;5.00;2.78;;;11.70;73.80;;;;;;5000420;28;20121;-71
2021/05/30 04:14:44;;;;;;;4.05;3.20;;;11.70;73.60;;;;;;5029080;28;20405;-72
2021/05/30 04:17:28;;;;;;;6.63;3.40;;;11.70;73.30;;;;;;5016837;28;20148;-72
2021/05/30 04:20:15;;;;;;;5.53;3.17;;;11.70;73.30;;;;;;5002026;28;20351;-72
2021/05/30 04:23:00;;;;;;;4.55;2.92;;;11.80;73.30;;;;;;5000891;28;20033;-71
2021/05/30 04:25:43;;;;;;;4.10;2.83;;;11.80;73.40;;;;;;5015082;28;20069;-72
2021/05/30 04:28:27;;;;;;;6.55;2.80;;;11.90;73.30;;;;;;5004515;28;20037;-72
2021/05/30 04:31:12;;;;;;;5.40;3.20;;;11.90;73.10;;;;;;5027341;28;20139;-71
2021/05/30 04:33:56;;;;;;;6.50;3.27;;;12.00;72.90;;;;;;4997176;28;20108;-71
2021/05/30 04:36:40;;;;;;;6.10;2.78;;;12.00;73.10;;;;;;5009993;28;20660;-71
2021/05/30 04:39:26;;;;;;;5.00;2.97;;;12.00;72.90;;;;;;5013171;28;20486;-71
2021/05/30 04:42:10;;;;;;;4.45;2.60;;;12.00;73.10;;;;;;5018992;28;20144;-73
2021/05/30 04:44:54;;;;;;;5.05;3.20;;;12.00;72.90;;;;;;5016579;28;20093;-73
2021/05/30 04:47:38;;;;;;;5.60;3.10;;;12.00;73.40;;;;;;5014513;28;20048;-77
2021/05/30 04:50:22;;;;;;;6.40;3.22;;;12.10;73.40;;;;;;5020047;28;20126;-82
2021/05/30 04:53:06;;;;;;;4.15;2.60;;;12.10;73.40;;;;;;5011000;28;20044;-74
2021/05/30 04:55:50;;;;;;;5.30;3.10;;;12.10;73.70;;;;;;5008254;28;20045;-75
2021/05/30 04:58:35;;;;;;;5.53;2.75;;;12.20;73.80;;;;;;5019001;28;20056;-80
2021/05/30 05:01:19;;;;;;;5.22;2.75;;;12.20;73.90;;;;;;5007976;28;20037;-80
2021/05/30 05:04:03;;;;;;;5.57;2.80;;;12.20;74.10;;;;;;5010779;28;20060;-79
2021/05/30 05:06:47;;;;;;;4.95;3.03;;;12.30;74.10;;;;;;5019884;28;20267;-79
2021/05/30 05:09:31;;;;;;;4.60;2.80;;;12.30;74.30;;;;;;5000130;28;20186;-81
2021/05/30 05:12:15;;;;;;;5.30;2.53;;;12.30;74.60;;;;;;5005803;28;20036;-82
2021/05/30 05:14:59;;;;;;;5.20;3.08;;;12.40;74.70;;;;;;5000572;28;20088;-84
2021/05/30 05:17:43;;;;;;;6.15;2.90;;;12.40;74.70;;;;;;5000660;28;20049;-81
2021/05/30 05:20:27;;;;;;;4.93;2.85;;;12.40;74.70;;;;;;5016121;28;20416;-81
2021/05/30 05:23:16;;;;;;;4.70;2.70;;;12.50;74.60;;;;;;5013110;28;20035;-82
2021/05/30 05:26:04;;;;;;;5.55;2.50;;;12.60;74.70;;;;;;5014474;28;20032;-81
2021/05/30 05:28:48;;;;;;;5.82;3.47;;;12.60;74.40;;;;;;4995684;28;20033;-82
2021/05/30 05:31:32;;;;;;;4.20;2.50;;;12.60;74.30;;;;;;5004938;28;20041;-80
2021/05/30 05:34:16;;;;;;;4.53;2.83;;;12.70;74.10;;;;;;4998173;28;20097;-78
2021/05/30 05:37:00;;;;;;;3.75;2.58;;;12.70;73.80;;;;;;5024980;28;20087;-82
2021/05/30 05:39:44;;;;;;;5.20;2.38;;;12.70;73.40;;;;;;5031781;28;20056;-81
2021/05/30 05:42:28;;;;;;;5.65;2.50;;;12.70;73.40;;;;;;5013298;28;20447;-79
2021/05/30 05:45:13;;;;;;;4.55;2.83;;;12.70;73.40;;;;;;5014950;28;20524;-80
2021/05/30 05:47:58;;;;;;;;;;;12.80;73.40;;;;;;5002138;28;20049;-80
2021/05/30 05:50:43;;;;;;;4.97;2.45;;;12.90;73.30;;;;;;5021143;28;19932;-80
2021/05/30 05:53:28;;;;;;;;;;;12.90;73.10;;;;;;4998156;28;20097;-80
2021/05/30 05:56:12;;;;;;;6.65;2.53;;;12.90;73.20;;;;;;4999135;28;21450;-81
2021/05/30 05:58:56;;;;;;;4.88;2.40;;;13.00;73.10;;;;;;5001402;28;20091;-82
2021/05/30 06:01:40;;;;;;;5.05;2.47;;;13.10;73.10;;;;;;5015552;28;20520;-77
2021/05/30 06:04:24;;;;;;;5.70;3.03;;;13.10;72.80;;;;;;5017603;28;20406;-76
2021/05/30 06:07:08;;;;;;;5.32;2.28;;;13.20;72.20;;;;;;5001000;28;20513;-80
2021/05/30 06:09:53;;;;;;;3.75;2.53;;;13.20;72.00;;;;;;5015555;28;20041;-81
2021/05/30 06:12:37;;;;;;;3.87;2.17;;;13.30;71.80;;;;;;5009237;28;20529;-82
2021/05/30 06:15:24;;;;;;;4.47;2.33;;;13.40;71.80;;;;;;5013965;28;20441;-80
2021/05/30 06:18:10;;;;;;;4.15;2.50;;;13.40;71.20;;;;;;5011598;28;20044;-81
2021/05/30 06:20:55;;;;;;;2.63;2.03;;;13.40;70.70;;;;;;5026143;28;20127;-80
2021/05/30 06:23:39;;;;;;;6.43;2.60;;;13.50;71.00;;;;;;4994010;28;20038;-82
2021/05/30 06:26:23;;;;;;;4.95;2.63;;;13.60;71.40;;;;;;5020309;28;20041;-82
2021/05/30 06:29:07;;;;;;;5.20;2.35;;;13.70;71.30;;;;;;4998993;28;20040;-80
2021/05/30 06:31:51;;;;;;;5.88;2.50;;;13.80;71.50;;;;;;5031712;28;20040;-81
2021/05/30 06:34:35;;;;;;;4.25;2.28;;;13.90;69.90;;;;;;5023732;28;20432;-83
2021/05/30 06:37:19;;;;;;;4.20;2.30;;;13.90;68.90;;;;;;5017363;28;20450;-80
2021/05/30 06:40:06;;;;;;;4.47;2.47;;;14.00;68.70;;;;;;5011872;28;20532;-81
2021/05/30 06:42:50;;;;;;;5.50;2.80;;;14.00;68.80;;;;;;5025694;28;20045;-82
2021/05/30 06:45:34;;;;;;;6.47;2.67;;;14.10;67.50;;;;;;5015156;28;20045;-80
2021/05/30 06:48:20;;;;;;;4.07;2.70;;;14.10;67.20;;;;;;5011134;28;20048;-76
2021/05/30 06:51:15;;;;;;;4.65;2.40;;;14.20;67.80;;;;;;5005140;28;20049;-76
2021/05/30 06:54:00;;;;;;;4.47;2.20;;;14.30;65.90;;;;;;5003833;28;20709;-77
2021/05/30 06:56:45;;;;;;;3.92;2.10;;;14.30;64.40;;;;;;4998198;28;20284;-76
2021/05/30 06:59:29;;;;;;;6.30;2.95;;;14.30;64.40;;;;;;5002523;28;20114;-75
2021/05/30 07:02:14;;;;;;;4.65;2.10;;;14.40;64.10;;;;;;5001268;28;20052;-74
2021/05/30 07:04:58;;;;;;;;;;;14.40;64.00;;;;;;5004542;28;20033;-75
2021/05/30 07:07:42;;;;;;;3.90;2.30;;;14.50;64.40;;;;;;5010095;28;19956;-74
2021/05/30 07:10:27;;;;;;;3.90;2.65;;;14.50;64.10;;;;;;4999065;28;20044;-78
2021/05/30 07:13:11;;;;;;;4.53;2.35;;;14.60;63.40;;;;;;5001308;28;20081;-77
2021/05/30 07:15:55;;;;;;;5.63;2.20;;;14.70;61.80;;;;;;4992397;28;20514;-73
2021/05/30 07:18:40;;;;;;;4.55;2.30;;;14.80;61.70;;;;;;4992807;28;20076;-77
2021/05/30 07:21:24;;;;;;;3.58;1.90;;;14.80;60.40;;;;;;5009975;28;20064;-75
2021/05/30 07:24:08;;;;;;;4.05;2.17;;;14.80;58.60;;;;;;5011014;28;20041;-75
2021/05/30 07:26:52;;;;;;;2.83;1.75;;;14.90;58.90;;;;;;5004491;28;20085;-74
2021/05/30 07:29:36;;;;;;;6.18;2.00;;;14.90;57.80;;;;;;5001913;28;20084;-73
2021/05/30 07:32:20;;;;;;;3.47;1.98;;;14.90;57.80;;;;;;5006931;28;20153;-76
2021/05/30 07:35:04;;;;;;;4.07;2.17;;;15.00;57.80;;;;;;4999048;28;20088;-75
2021/05/30 07:37:49;;;;;;;;;;;15.10;57.80;;;;;;5007008;28;20041;-73
2021/05/30 07:40:33;;;;;;;5.22;2.78;;;15.10;57.30;;;;;;5011031;28;19948;-74
2021/05/30 07:43:17;;;;;;;4.68;2.05;;;15.20;58.20;;;;;;4999796;28;20053;-74
2021/05/30 07:46:02;;;;;;;3.80;2.35;;;15.20;57.10;;;;;;5007124;28;20410;-73
2021/05/30 07:48:46;;;;;;;3.95;2.20;;;15.20;56.90;;;;;;5004272;28;20033;-74
2021/05/30 07:51:30;;;;;;;2.70;1.90;;;15.20;57.10;;;;;;5008966;28;20119;-74
2021/05/30 07:54:14;;;;;;;4.27;2.50;;;15.20;57.50;;;;;;4994047;28;20041;-74
2021/05/30 07:56:58;;;;;;;3.95;2.15;;;15.20;58.10;;;;;;5000002;28;20040;-74
2021/05/30 07:59:42;;;;;;;3.53;2.10;;;15.30;58.20;;;;;;5007787;28;20433;-75
2021/05/30 08:02:26;;;;;;;6.80;2.30;;;15.40;57.80;;;;;;5007979;28;20044;-76
2021/05/30 08:05:13;;;;;;;4.93;2.40;;;15.50;58.20;;;;;;5009315;28;20037;-74
2021/05/30 08:07:57;;;;;;;5.10;2.00;;;15.60;57.00;;;;;;5009407;28;20542;-76
2021/05/30 08:10:41;;;;;;;3.28;1.77;;;15.60;57.10;;;;;;5004274;28;20101;-75
2021/05/30 08:13:25;;;;;;;3.28;1.98;;;15.70;56.30;;;;;;4991470;28;20037;-76
2021/05/30 08:16:09;;;;;;;5.05;2.20;;;15.70;56.40;;;;;;5004604;28;20401;-76
2021/05/30 08:18:53;;;;;;;4.95;2.13;;;15.80;56.10;;;;;;5005135;28;20116;-75
2021/05/30 08:21:37;;;;;;;4.87;2.23;;;15.80;56.40;;;;;;5000939;28;20053;-75
2021/05/30 08:24:21;;;;;;;4.15;2.08;;;15.90;56.60;;;;;;5010913;28;20053;-75
2021/05/30 08:27:06;;;;;;;4.05;1.98;;;16.00;56.80;;;;;;4992654;28;20398;-76
2021/05/30 08:29:50;;;;;;;5.68;2.45;;;16.10;56.70;;;;;;5007761;28;20212;-74
2021/05/30 08:32:35;;;;;;;7.50;2.70;;;16.10;56.60;;;;;;5003514;28;20041;-69
2021/05/30 08:35:19;;;;;;;3.65;2.13;;;16.20;56.30;;;;;;5003324;28;20100;-74
2021/05/30 08:38:03;;;;;;;4.18;1.90;;;16.30;56.00;;;;;;5009597;28;20029;-75
2021/05/30 08:40:49;;;;;;;3.40;1.92;;;16.40;55.10;;;;;;5007181;28;20165;-74
2021/05/30 08:43:33;;;;;;;4.05;1.95;;;16.50;53.70;;;;;;5022361;28;20385;-74
2021/05/30 08:46:17;;;;;;;7.57;2.20;;;16.50;52.60;;;;;;5008969;28;20541;-74
2021/05/30 08:49:05;;;;;;;4.03;1.88;;;16.60;52.00;;;;;;5028276;28;20088;-74
2021/05/30 08:51:49;;;;;;;4.55;1.75;;;16.70;52.00;;;;;;5003127;28;20076;-74
2021/05/30 08:54:33;;;;;;;5.75;2.00;;;16.80;51.30;;;;;;5014394;28;20041;-74
2021/05/30 08:57:17;;;;;;;3.72;2.10;;;16.80;51.00;;;;;;5012697;28;20068;-75
2021/05/30 09:00:06;;;;;;;3.90;2.10;;;16.90;50.90;;;;;;5009380;28;20044;-75
2021/05/30 09:03:17;;;;;;;2.80;1.80;;;17.00;51.00;;;;;;4998332;28;20061;-75
2021/05/30 09:06:17;;;;;;;3.88;2.45;;;17.10;49.80;;;;;;4994234;28;20104;-75
2021/05/30 09:09:04;;;;;;;4.05;1.83;;;17.20;50.60;;;;;;5007578;28;20045;-75
2021/05/30 09:11:51;;;;;;;6.15;2.10;;;17.20;49.80;;;;;;5010503;28;20040;-74
2021/05/30 09:14:43;;;;;;;2.97;1.95;;;17.40;49.30;;;;;;5003960;28;20049;-75
2021/05/30 09:17:27;;;;;;;6.00;2.05;;;17.40;49.30;;;;;;5006961;28;20056;-78
2021/05/30 09:20:12;;;;;;;4.90;2.47;;;17.50;49.20;;;;;;5014813;28;20041;-78
2021/05/30 09:22:56;;;;;;;5.78;1.85;;;17.50;48.30;;;;;;5011319;28;20490;-74
2021/05/30 09:25:40;;;;;;;4.53;2.13;;;17.50;49.00;;;;;;5009690;28;20520;-75
2021/05/30 09:28:24;;;;;;;3.58;1.90;;;17.60;49.00;;;;;;5013178;28;20123;-74
2021/05/30 09:31:08;;;;;;;5.20;1.83;;;17.60;47.10;;;;;;4995690;28;20042;-75
2021/05/30 09:33:52;;;;;;;5.82;2.00;;;17.60;48.30;;;;;;5011134;28;20088;-76
2021/05/30 09:36:50;;;;;;;3.88;2.13;;;17.60;48.00;;;;;;5012134;28;20049;-76
2021/05/30 09:39:40;;;;;;;3.47;1.83;;;17.70;48.10;;;;;;5008040;28;20501;-74
2021/05/30 09:42:35;;;;;;;5.22;1.80;;;17.80;47.90;;;;;;5010710;28;20049;-74
2021/05/30 09:45:19;;;;;;;4.68;2.25;;;17.80;47.00;;;;;;4996137;28;20394;-74
2021/05/30 09:48:14;;;;;;;3.40;2.03;;;17.90;47.80;;;;;;4996968;28;20044;-75
2021/05/30 09:51:07;;;;;;;3.42;2.05;;;17.90;47.00;;;;;;5002434;28;20113;-72
2021/05/30 09:54:01;;;;;;;3.30;1.60;;;17.90;47.50;;;;;;4999860;28;20041;-74
2021/05/30 09:56:47;;;;;;;4.50;2.22;;;18.00;46.90;;;;;;4997927;28;20152;-83
2021/05/30 09:59:36;;;;;;;3.38;1.98;;;18.00;47.70;;;;;;5005740;28;20040;-73
2021/05/30 10:02:20;;;;;;;4.00;1.95;;;18.10;48.10;;;;;;5011473;28;20564;-73
2021/05/30 10:05:06;;;;;;;4.43;2.60;;;18.10;47.20;;;;;;5001168;28;20044;-73
2021/05/30 10:07:52;;;;;;;6.22;2.00;;;18.20;48.10;;;;;;5014386;28;20068;-74
2021/05/30 10:10:36;;;;;;;3.67;2.38;;;18.30;46.90;;;;;;5026961;28;20041;-72
2021/05/30 10:13:03;;;;;;;3.55;2.30;;;18.40;47.50;;;;;;4999288;28;20026;-74
2021/05/30 10:15:47;;;;;;;5.13;2.10;;;18.40;46.80;;;;;;5005617;28;20115;-72
2021/05/30 10:18:42;;;;;;;2.83;1.83;;;18.50;47.10;;;;;;5002670;28;20101;-70
2021/05/30 10:21:26;;;;;;;3.42;2.00;;;18.50;46.80;;;;;;5020360;28;20434;-76
2021/05/30 10:24:12;;;;;;;6.68;2.28;;;18.50;46.50;;;;;;5022284;28;20099;-77
2021/05/30 10:27:08;;;;;;;;;;;18.60;46.70;;;;;;5017691;28;20192;-77
2021/05/30 10:30:08;;;;;;;3.63;1.70;;;18.60;46.30;;;;;;5029234;28;19959;-84
2021/05/30 10:33:16;;;;;;;5.88;2.70;;;18.50;46.50;;;;;;5013817;28;20048;-77
2021/05/30 10:36:11;;;;;;;3.33;1.88;;;18.60;46.70;;;;;;5013926;28;20524;-82
2021/05/30 10:38:55;;;;;;;2.85;1.95;;;18.70;46.60;;;;;;5008169;28;20497;-81
2021/05/30 10:41:39;;;;;;;3.00;2.00;;;18.70;46.50;;;;;;5001563;28;20088;-80
2021/05/30 10:44:56;;;;;;;4.45;2.58;;;18.70;47.00;;;;;;5007375;28;20041;-81
2021/05/30 10:47:43;;;;;;;3.85;2.28;;;18.70;46.50;;;;;;5016412;28;20041;-78
2021/05/30 10:50:37;;;;;;;5.65;2.45;;;18.80;46.40;;;;;;5016714;28;20100;-76
2021/05/30 10:53:52;;;;;;;4.35;2.42;;;18.80;46.10;;;;;;5016299;28;20125;-86
2021/05/30 10:56:40;;;;;;;4.13;2.42;;;18.80;46.80;;;;;;5010903;28;20061;-81
2021/05/30 10:59:26;;;;;;;3.58;2.03;;;18.80;46.70;;;;;;5009146;28;20037;-84
2021/05/30 11:02:13;;;;;;;3.83;2.13;;;18.90;47.00;;;;;;5006818;28;20591;-83
2021/05/30 11:04:57;;;;;;;3.35;2.10;;;18.90;47.30;;;;;;5011025;28;20095;-79
2021/05/30 11:07:41;;;;;;;4.72;2.50;;;19.00;47.30;;;;;;5007773;28;20118;-75
2021/05/30 11:10:25;;;;;;;3.60;2.45;;;19.10;47.00;;;;;;4995298;28;20038;-80
2021/05/30 11:13:15;;;;;;;4.37;2.43;;;19.10;47.30;;;;;;5010605;28;20049;-78
2021/05/30 11:16:07;;;;;;;3.70;2.63;;;19.10;46.80;;;;;;5004488;28;20096;-80
2021/05/30 11:18:59;;;;;;;5.65;2.45;;;19.20;47.00;;;;;;4998030;28;20658;-77
2021/05/30 11:21:46;;;;;;;4.10;2.50;;;19.10;47.00;;;;;;5004013;28;20049;-84
2021/05/30 11:24:32;;;;;;;5.15;2.72;;;19.20;47.70;;;;;;5012418;28;20060;-79
2021/05/30 11:27:16;;;;;;;3.53;2.10;;;19.30;47.20;;;;;;5013914;28;20036;-76
2021/05/30 11:30:00;;;;;;;3.60;2.35;;;19.30;47.00;;;;;;5008917;28;20077;-82
2021/05/30 11:32:48;;;;;;;7.95;2.92;;;19.50;47.70;;;;;;5008379;28;20044;-79
2021/05/30 11:35:33;;;;;;;4.93;2.85;;;19.50;46.80;;;;;;5011801;28;20040;-76
2021/05/30 11:38:18;;;;;;;;;;;19.50;46.70;;;;;;5012114;28;20103;-81
2021/05/30 11:41:09;;;;;;;4.53;2.30;;;19.50;46.80;;;;;;5011271;28;19920;-77
2021/05/30 11:44:10;;;;;;;4.85;2.63;;;19.40;46.10;;;;;;5014711;28;20028;-79
2021/05/30 11:47:00;;;;;;;4.45;2.38;;;19.30;45.90;;;;;;5009693;28;20111;-77
2021/05/30 11:49:44;;;;;;;6.43;2.78;;;19.30;46.00;;;;;;5007635;28;20083;-78
2021/05/30 11:52:28;;;;;;;4.30;2.40;;;19.30;45.50;;;;;;5013324;28;20060;-78
2021/05/30 11:55:15;;;;;;;3.93;2.23;;;19.40;45.00;;;;;;5006113;28;20133;-80
2021/05/30 11:58:07;;;;;;;5.05;2.08;;;19.40;45.50;;;;;;5004787;28;20040;-78
2021/05/30 12:01:00;;;;;;;3.75;2.03;;;19.40;45.10;;;;;;5014803;28;20387;-79
2021/05/30 12:03:49;;;;;;;2.50;1.83;;;19.50;44.80;;;;;;5016751;28;20053;-79
2021/05/30 12:06:43;;;;;;;4.70;2.28;;;19.50;44.90;;;;;;5007764;28;20426;-77
2021/05/30 12:09:49;;;;;;;3.50;2.17;;;19.50;44.10;;;;;;5016675;28;20036;-77
2021/05/30 12:12:39;;;;;;;4.90;2.15;;;19.50;44.70;;;;;;5001532;28;20033;-77
2021/05/30 12:15:26;;;;;;;3.83;2.10;;;19.60;44.90;;;;;;5012848;28;20092;-77
2021/05/30 12:18:10;;;;;;;3.75;1.92;;;19.60;45.20;;;;;;5010133;28;20072;-77
2021/05/30 12:20:59;;;;;;;5.63;2.33;;;19.70;45.00;;;;;;4999778;28;20057;-83
2021/05/30 12:23:44;;;;;;;5.13;2.60;;;19.70;44.80;;;;;;5012383;28;20509;-79
2021/05/30 12:26:28;;;;;;;6.40;2.10;;;19.80;44.50;;;;;;5007050;28;20029;-74
2021/05/30 12:29:14;;;;;;;3.83;2.40;;;19.80;44.30;;;;;;5015180;28;20120;-78
2021/05/30 12:31:59;;;;;;;5.28;2.53;;;19.90;45.20;;;;;;4999648;28;20537;-77
2021/05/30 12:34:43;;;;;;;3.92;2.50;;;20.00;45.10;;;;;;5004501;28;20069;-79
2021/05/30 12:37:42;;;;;;;3.70;2.10;;;20.10;45.20;;;;;;5004060;28;20038;-78
2021/05/30 12:40:35;;;;;;;4.85;2.15;;;20.20;43.40;;;;;;5004073;28;20457;-77
2021/05/30 12:43:35;;;;;;;4.85;2.30;;;20.30;43.50;;;;;;5001394;28;20032;-77
2021/05/30 12:46:20;;;;;;;5.32;2.38;;;20.40;43.50;;;;;;5006430;28;20118;-78
2021/05/30 12:49:16;;;;;;;3.65;2.30;;;20.40;43.40;;;;;;5005995;28;20040;-77
2021/05/30 12:52:16;;;;;;;5.75;2.10;;;20.50;42.60;;;;;;5008527;28;20037;-75
2021/05/30 12:55:08;;;;;;;3.63;2.20;;;20.50;43.20;;;;;;4991300;28;20081;-79
2021/05/30 12:57:54;;;;;;;5.35;2.45;;;20.60;43.40;;;;;;5003601;28;20113;-75
2021/05/30 13:00:38;;;;;;;6.43;2.33;;;20.70;43.20;;;;;;4995410;28;20056;-81
2021/05/30 13:03:26;;;;;;;5.43;2.58;;;20.80;43.30;;;;;;5006596;28;20489;-79
2021/05/30 13:06:10;;;;;;;3.58;2.30;;;20.90;43.60;;;;;;4999830;28;20470;-80
2021/05/30 13:08:58;;;;;;;4.10;2.60;;;21.00;43.50;;;;;;4997899;28;20489;-78
2021/05/30 13:11:42;;;;;;;4.35;2.53;;;21.00;43.50;;;;;;5007637;28;20524;-84
2021/05/30 13:14:32;;;;;;;3.88;2.15;;;20.70;42.30;;;;;;5011937;28;20485;-76
2021/05/30 13:17:21;;;;;;;5.10;2.53;;;20.50;42.80;;;;;;5006595;28;20136;-74
2021/05/30 13:20:10;;;;;;;6.20;2.80;;;20.50;43.50;;;;;;4997406;28;20045;-78
2021/05/30 13:23:06;;;;;;;6.40;2.58;;;20.60;43.40;;;;;;5010531;28;20037;-78
2021/05/30 13:26:11;;;;;;;4.65;2.10;;;20.70;43.70;;;;;;5012360;28;20441;-84
2021/05/30 13:28:56;;;;;;;4.47;2.30;;;20.90;42.50;;;;;;5013558;28;20124;-80
2021/05/30 13:31:40;;;;;;;3.05;1.80;;;20.90;43.00;;;;;;5001085;28;20046;-81
2021/05/30 13:34:25;;;;;;;5.67;2.90;;;21.00;42.10;;;;;;5005792;28;20493;-84
2021/05/30 13:37:09;;;;;;;4.93;2.40;;;21.00;43.00;;;;;;5008853;28;20496;-83
2021/05/30 13:40:00;;;;;;;3.65;2.28;;;21.10;42.50;;;;;;5008376;28;20083;-82
2021/05/30 13:42:45;;;;;;;8.13;2.42;;;21.30;43.20;;;;;;5001947;28;20045;-82
2021/05/30 13:45:29;;;;;;;4.30;2.57;;;21.40;42.40;;;;;;4994087;28;20041;-80
2021/05/30 13:48:14;;;;;;;4.70;2.17;;;21.50;42.50;;;;;;5005178;28;20045;-84
2021/05/30 13:51:01;;;;;;;6.20;2.47;;;21.60;42.50;;;;;;5032953;28;20068;-81
2021/05/30 13:53:48;;;;;;;4.07;2.50;;;21.80;41.80;;;;;;5020697;28;20133;-81
2021/05/30 13:56:32;;;;;;;4.30;2.28;;;21.70;41.70;;;;;;5013173;28;20060;-87
2021/05/30 13:59:16;;;;;;;5.95;2.10;;;21.70;41.40;;;;;;5015623;28;20090;-81
2021/05/30 14:02:00;;;;;;;3.50;2.20;;;21.70;41.60;;;;;;5013287;28;20045;-85
2021/05/30 14:04:44;;;;;;;4.22;2.28;;;21.80;41.00;;;;;;5011961;28;20095;-86
2021/05/30 14:07:28;;;;;;;4.60;2.53;;;21.80;40.80;;;;;;5008983;28;20085;-88
2021/05/30 14:10:13;;;;;;;3.88;2.50;;;21.80;41.20;;;;;;5005751;28;20045;-86
2021/05/30 14:12:57;;;;;;;3.50;2.42;;;21.80;41.20;;;;;;5007219;28;20068;-85
2021/05/30 14:15:40;;;;;;;4.18;2.20;;;21.90;41.40;;;;;;5008440;28;20040;-87
2021/05/30 14:18:24;;;;;;;3.60;2.30;;;21.90;41.30;;;;;;5013796;28;20106;-87
2021/05/30 14:21:08;;;;;;;4.97;2.30;;;21.90;41.20;;;;;;5005602;28;20188;-83